createdAt,value
2023-05-05T00:00:45.100Z,100486.52
2023-05-05T00:01:45.135Z,100488.66
2023-05-05T00:02:45.175Z,100486.21
2023-05-05T00:03:45.238Z,100493.21
2023-05-05T00:04:45.299Z,100492.69
2023-05-05T00:05:45.205Z,100492.83
2023-05-05T00:06:47.324Z,100495.61
2023-05-05T00:07:45.220Z,100492.51
2023-05-05T00:08:45.198Z,100494.23
2023-05-05T00:09:45.207Z,100492.36
2023-05-05T00:10:45.700Z,100496.99
2023-05-05T00:11:45.274Z,100492.8
2023-05-05T00:12:45.326Z,100492.14
2023-05-05T00:13:45.373Z,100490.89
2023-05-05T00:14:45.281Z,100488.23
2023-05-05T00:15:46.425Z,100492.12
2023-05-05T00:16:45.592Z,100491.98
2023-05-05T00:17:45.613Z,100495.21
2023-05-05T00:18:45.390Z,100489.7
2023-05-05T00:19:45.424Z,100487.83
2023-05-05T00:20:46.061Z,100492.69
2023-05-05T00:21:45.637Z,100492.64
2023-05-05T00:22:45.440Z,100489.14
2023-05-05T00:23:45.417Z,100492.06
2023-05-05T00:24:45.705Z,100492.91
2023-05-05T00:25:45.592Z,100495.2
2023-05-05T00:26:45.598Z,100497.7
2023-05-05T00:27:45.524Z,100496.45
2023-05-05T00:28:45.518Z,100495.62
2023-05-05T00:29:45.484Z,100492.73
2023-05-05T00:30:45.498Z,100493.65
2023-05-05T00:31:45.591Z,100493.3
2023-05-05T00:32:47.354Z,100492.62
2023-05-05T00:33:45.514Z,100491.25
2023-05-05T00:34:45.565Z,100494.92
2023-05-05T00:35:45.788Z,100495.51
2023-05-05T00:36:45.785Z,100495.16
2023-05-05T00:37:45.631Z,100497.7
2023-05-05T00:38:45.668Z,100498.09
2023-05-05T00:39:45.633Z,100501.12
2023-05-05T00:40:45.881Z,100499.92
2023-05-05T00:41:45.676Z,100502.3
2023-05-05T00:42:46.834Z,100504.31
2023-05-05T00:43:45.704Z,100500.19
2023-05-05T00:44:45.728Z,100501.7
2023-05-05T00:45:46.037Z,100500.75
2023-05-05T00:46:45.940Z,100500.52
2023-05-05T00:47:49.340Z,100502.28
2023-05-05T00:48:46.251Z,100498.73
2023-05-05T00:49:46.370Z,100503.76
2023-05-05T00:50:46.204Z,100502.12
2023-05-05T00:51:46.234Z,100500.11
2023-05-05T00:52:46.261Z,100501.31
2023-05-05T00:53:47.138Z,100500.59
2023-05-05T00:54:46.865Z,100500.25
2023-05-05T00:55:46.290Z,100496.45
2023-05-05T00:56:46.966Z,100497.75
2023-05-05T00:57:46.963Z,100498.8
2023-05-05T00:58:46.380Z,100496.8
2023-05-05T00:59:46.642Z,100498.45
2023-05-05T01:00:46.320Z,100495.84
2023-05-05T01:01:46.473Z,100497.84
2023-05-05T01:02:46.480Z,100500.2
2023-05-05T01:03:46.525Z,100497.25
2023-05-05T01:04:46.397Z,100502.26
2023-05-05T01:05:56.582Z,100494.75
2023-05-05T01:06:53.785Z,100498.58
2023-05-05T01:08:02.458Z,100494.41
2023-05-05T01:11:05.427Z,100497.51
2023-05-05T01:14:16.449Z,100489.69
2023-05-05T01:17:18.430Z,100486.48
2023-05-05T01:18:24.331Z,100486.77
2023-05-05T01:21:31.993Z,100490.81
2023-05-05T01:27:49.622Z,100502.45
2023-05-05T01:33:03.426Z,100490.31
2023-05-05T01:34:03.970Z,100494.88
2023-05-05T01:36:10.226Z,100494.19
2023-05-05T01:38:11.907Z,100502.19
2023-05-05T01:39:12.512Z,100504.34
2023-05-05T01:40:10.255Z,100500.59
2023-05-05T01:42:13.966Z,100502.45
2023-05-05T01:43:15.218Z,100498.72
2023-05-05T01:44:14.577Z,100497.26
2023-05-05T01:45:14.494Z,100497.38
2023-05-05T01:46:13.827Z,100499.02
2023-05-05T01:47:15.679Z,100499.48
2023-05-05T01:48:16.272Z,100497.88
2023-05-05T01:49:13.690Z,100500.34
2023-05-05T01:50:14.707Z,100502.44
2023-05-05T01:51:13.923Z,100501.8
2023-05-05T01:52:14.332Z,100501.3
2023-05-05T01:53:14.687Z,100497.83
2023-05-05T01:54:15.041Z,100496.77
2023-05-05T01:55:14.655Z,100502.42
2023-05-05T01:56:14.074Z,100501.63
2023-05-05T01:57:14.187Z,100503.31
2023-05-05T01:58:14.726Z,100501.48
2023-05-05T01:59:13.549Z,100500.91
2023-05-05T02:00:14.634Z,100502.03
2023-05-05T02:01:14.203Z,100504.09
2023-05-05T02:02:15.313Z,100503.16
2023-05-05T02:03:14.418Z,100499.77
2023-05-05T02:04:14.758Z,100504.66
2023-05-05T02:05:14.464Z,100506.25
2023-05-05T02:06:14.664Z,100503.73
2023-05-05T02:07:14.333Z,100505.64
2023-05-05T02:08:13.939Z,100506.75
2023-05-05T02:09:13.940Z,100507.86
2023-05-05T02:10:14.318Z,100504.45
2023-05-05T02:11:13.857Z,100503.23
2023-05-05T02:12:14.208Z,100497.86
2023-05-05T02:13:13.932Z,100500.56
2023-05-05T02:14:13.948Z,100496.25
2023-05-05T02:15:14.579Z,100502
2023-05-05T02:16:13.725Z,100502.37
2023-05-05T02:17:15.848Z,100502.27
2023-05-05T02:18:14.078Z,100506.71
2023-05-05T02:19:14.736Z,100506.27
2023-05-05T02:20:14.433Z,100507.09
2023-05-05T02:21:14.115Z,100505.66
2023-05-05T02:22:13.913Z,100503.98
2023-05-05T02:23:14.004Z,100507.28
2023-05-05T02:24:13.718Z,100512.05
2023-05-05T02:25:13.782Z,100510.2
2023-05-05T02:26:15.801Z,100507.22
2023-05-05T02:27:15.779Z,100504.32
2023-05-05T02:29:19.487Z,100511.38
2023-05-05T02:30:19.523Z,100505.16
2023-05-05T02:31:19.999Z,100506.02
2023-05-05T02:32:26.523Z,100505.84
2023-05-05T02:33:21.060Z,100508.11
2023-05-05T02:34:22.010Z,100507.27
2023-05-05T02:35:20.680Z,100503.73
2023-05-05T02:36:19.867Z,100508.53
2023-05-05T02:37:21.300Z,100510.3
2023-05-05T02:38:18.454Z,100508.04
2023-05-05T02:39:21.599Z,100509.08
2023-05-05T02:40:22.256Z,100505.56
2023-05-05T02:41:20.058Z,100509.09
2023-05-05T02:42:20.197Z,100507.73
2023-05-05T02:43:20.878Z,100509.96
2023-05-05T02:44:19.658Z,100509.08
2023-05-05T02:45:20.427Z,100512.59
2023-05-05T02:46:19.003Z,100515.42
2023-05-05T02:47:20.242Z,100510.08
2023-05-05T02:48:19.112Z,100512.14
2023-05-05T02:49:19.408Z,100517.23
2023-05-05T02:50:19.141Z,100510.11
2023-05-05T02:51:18.976Z,100516.55
2023-05-05T02:52:19.130Z,100515.15
2023-05-05T02:53:23.148Z,100515.02
2023-05-05T02:54:19.641Z,100513.59
2023-05-05T02:55:19.625Z,100515.37
2023-05-05T02:57:25.203Z,100519.45
2023-05-05T03:03:46.634Z,100522.06
2023-05-05T03:04:50.236Z,100525.59
2023-05-05T03:05:53.559Z,100520.41
2023-05-05T03:06:53.553Z,100523.14
2023-05-05T03:08:00.361Z,100523.02
2023-05-05T03:11:59.506Z,100520.56
2023-05-05T03:12:58.314Z,100519.52
2023-05-05T03:13:58.957Z,100518.88
2023-05-05T03:14:57.997Z,100523.14
2023-05-05T03:15:56.602Z,100520.67
2023-05-05T03:16:56.348Z,100526.24
2023-05-05T03:17:56.401Z,100518.52
2023-05-05T03:18:57.001Z,100521.56
2023-05-05T03:19:56.425Z,100519.45
2023-05-05T03:20:56.398Z,100523.23
2023-05-05T03:21:56.201Z,100520
2023-05-05T03:22:56.116Z,100521.08
2023-05-05T03:23:56.828Z,100520.83
2023-05-05T03:24:55.908Z,100523.7
2023-05-05T03:25:56.090Z,100519.95
2023-05-05T03:26:56.169Z,100523.98
2023-05-05T03:27:55.917Z,100519.39
2023-05-05T03:28:55.907Z,100520.62
2023-05-05T03:29:56.154Z,100525.16
2023-05-05T03:30:56.482Z,100522.98
2023-05-05T03:31:56.180Z,100522.22
2023-05-05T03:32:55.986Z,100521.34
2023-05-05T03:33:55.990Z,100522.02
2023-05-05T03:34:56.282Z,100519.73
2023-05-05T03:35:56.068Z,100519.34
2023-05-05T03:36:56.041Z,100524.12
2023-05-05T03:37:56.203Z,100520.76
2023-05-05T03:38:56.313Z,100523.47
2023-05-05T03:39:56.067Z,100522.5
2023-05-05T03:40:56.135Z,100526.95
2023-05-05T03:41:56.090Z,100524.24
2023-05-05T03:42:56.100Z,100526.15
2023-05-05T03:43:56.675Z,100529.12
2023-05-05T03:44:56.672Z,100525.77
2023-05-05T03:45:56.732Z,100521.63
2023-05-05T03:46:56.730Z,100526.69
2023-05-05T03:47:56.689Z,100526.3
2023-05-05T03:48:56.730Z,100527.47
2023-05-05T03:49:56.719Z,100526.72
2023-05-05T03:50:56.943Z,100531.2
2023-05-05T03:51:56.749Z,100526.89
2023-05-05T03:52:56.776Z,100531.55
2023-05-05T03:53:56.786Z,100532.56
2023-05-05T03:54:56.769Z,100530.28
2023-05-05T03:55:56.819Z,100533.81
2023-05-05T03:56:56.856Z,100531.33
2023-05-05T03:57:56.860Z,100535.12
2023-05-05T03:58:56.836Z,100537.73
2023-05-05T03:59:56.848Z,100532.64
2023-05-05T04:00:57.122Z,100536.59
2023-05-05T04:01:57.177Z,100534.59
2023-05-05T04:02:57.191Z,100532.87
2023-05-05T04:03:57.065Z,100540.55
2023-05-05T04:04:56.950Z,100533.56
2023-05-05T04:05:56.966Z,100540.25
2023-05-05T04:06:57.001Z,100537.97
2023-05-05T04:07:57.010Z,100539.92
2023-05-05T04:08:56.992Z,100537.27
2023-05-05T04:09:57.000Z,100541.65
2023-05-05T04:10:57.266Z,100536.99
2023-05-05T04:11:59.186Z,100536.88
2023-05-05T04:12:57.184Z,100537.31
2023-05-05T04:13:57.062Z,100541.81
2023-05-05T04:14:57.073Z,100542.73
2023-05-05T04:15:57.100Z,100541.33
2023-05-05T04:16:57.107Z,100543.29
2023-05-05T04:17:57.354Z,100542.09
2023-05-05T04:18:57.361Z,100543.13
2023-05-05T04:19:57.182Z,100545.71
2023-05-05T04:20:57.176Z,100544.47
2023-05-05T04:21:57.226Z,100545.55
2023-05-05T04:22:57.228Z,100547.27
2023-05-05T04:23:57.214Z,100548.7
2023-05-05T04:24:57.204Z,100550.03
2023-05-05T04:25:57.235Z,100550.14
2023-05-05T04:26:57.489Z,100549.27
2023-05-05T04:27:57.269Z,100549.33
2023-05-05T04:28:57.661Z,100551.61
2023-05-05T04:29:57.506Z,100552.8
2023-05-05T04:30:57.502Z,100553.23
2023-05-05T04:31:57.350Z,100556.22
2023-05-05T04:32:57.374Z,100556.11
2023-05-05T04:33:57.406Z,100555.9
2023-05-05T04:34:57.663Z,100561
2023-05-05T04:35:57.388Z,100558.34
2023-05-05T04:36:57.433Z,100559.5
2023-05-05T04:37:57.424Z,100558.78
2023-05-05T04:38:57.496Z,100558.78
2023-05-05T04:39:57.525Z,100560.14
2023-05-05T04:40:57.498Z,100560.74
2023-05-05T04:41:57.494Z,100565.58
2023-05-05T04:42:57.681Z,100559.72
2023-05-05T04:43:57.546Z,100561.44
2023-05-05T04:44:57.560Z,100563.07
2023-05-05T04:45:57.549Z,100559.47
2023-05-05T04:46:57.721Z,100559.91
2023-05-05T04:47:57.595Z,100558.09
2023-05-05T04:48:58.857Z,100560.33
2023-05-05T04:49:57.635Z,100558.45
2023-05-05T04:50:57.630Z,100563.69
2023-05-05T04:51:57.837Z,100554.98
2023-05-05T04:52:57.622Z,100551.98
2023-05-05T04:53:58.058Z,100553.48
2023-05-05T04:54:57.722Z,100556.59
2023-05-05T04:55:59.169Z,100560.07
2023-05-05T04:56:57.754Z,100558.27
2023-05-05T04:57:57.989Z,100558.04
2023-05-05T04:58:57.984Z,100562.23
2023-05-05T04:59:58.009Z,100563.58
2023-05-05T05:00:57.789Z,100560.61
2023-05-05T05:01:57.822Z,100564.05
2023-05-05T05:02:58.081Z,100560.89
2023-05-05T05:03:57.913Z,100560.88
2023-05-05T05:04:58.755Z,100560.62
2023-05-05T05:05:57.870Z,100559.41
2023-05-05T05:06:59.328Z,100559.92
2023-05-05T05:07:58.067Z,100563.83
2023-05-05T05:08:57.924Z,100559.16
2023-05-05T05:09:58.176Z,100564.05
2023-05-05T05:10:58.708Z,100561.39
2023-05-05T05:12:01.191Z,100562.02
2023-05-05T05:12:57.989Z,100564.14
2023-05-05T05:13:57.981Z,100564.34
2023-05-05T05:14:58.030Z,100566.48
2023-05-05T05:15:58.065Z,100567.61
2023-05-05T05:16:58.062Z,100569.66
2023-05-05T05:17:58.096Z,100568.98
2023-05-05T05:18:59.072Z,100571.88
2023-05-05T05:19:58.104Z,100568.89
2023-05-05T05:20:58.082Z,100569.69
2023-05-05T05:21:58.103Z,100573.52
2023-05-05T05:22:58.119Z,100568.28
2023-05-05T05:23:58.098Z,100565.6
2023-05-05T05:24:58.148Z,100568.42
2023-05-05T05:25:58.167Z,100565.01
2023-05-05T05:26:58.445Z,100569.38
2023-05-05T05:28:08.932Z,100561.91
2023-05-05T05:29:01.353Z,100568.8
2023-05-05T05:30:01.413Z,100570.72
2023-05-05T05:31:01.407Z,100564.98
2023-05-05T05:32:01.545Z,100569.38
2023-05-05T05:33:01.431Z,100568.94
2023-05-05T05:34:01.480Z,100566.61
2023-05-05T05:35:01.489Z,100570.62
2023-05-05T05:36:01.467Z,100570.55
2023-05-05T05:37:01.526Z,100568.52
2023-05-05T05:38:01.741Z,100571.02
2023-05-05T05:39:01.507Z,100563.29
2023-05-05T05:40:01.575Z,100568.65
2023-05-05T05:41:04.727Z,100572.19
2023-05-05T05:42:01.596Z,100569.23
2023-05-05T05:43:01.615Z,100567.2
2023-05-05T05:44:01.770Z,100571.75
2023-05-05T05:45:01.604Z,100572.91
2023-05-05T05:46:01.709Z,100567.45
2023-05-05T05:47:01.657Z,100567.66
2023-05-05T05:48:01.751Z,100574.41
2023-05-05T05:49:01.651Z,100573.86
2023-05-05T05:50:01.908Z,100573.19
2023-05-05T05:51:01.710Z,100569.25
2023-05-05T05:52:01.910Z,100574.38
2023-05-05T05:53:01.758Z,100576.25
2023-05-05T05:54:01.767Z,100575.35
2023-05-05T05:55:02.070Z,100570.86
2023-05-05T05:56:01.830Z,100570.98
2023-05-05T05:57:01.811Z,100573.77
2023-05-05T05:58:02.054Z,100577.1
2023-05-05T05:59:01.855Z,100575.14
2023-05-05T06:00:02.230Z,100576.99
2023-05-05T06:01:01.895Z,100574.28
2023-05-05T06:02:02.048Z,100576.55
2023-05-05T06:03:02.048Z,100579.46
2023-05-05T06:04:01.980Z,100578.34
2023-05-05T06:05:01.952Z,100579.23
2023-05-05T06:06:02.015Z,100583.15
2023-05-05T06:07:02.072Z,100580.39
2023-05-05T06:08:02.000Z,100579.85
2023-05-05T06:09:02.037Z,100583.52
2023-05-05T06:10:14.465Z,100582.95
2023-05-05T06:11:05.713Z,100579.86
2023-05-05T06:12:06.248Z,100585.95
2023-05-05T06:13:05.776Z,100584.64
2023-05-05T06:14:05.735Z,100585.48
2023-05-05T06:15:06.392Z,100581.49
2023-05-05T06:16:06.312Z,100583.72
2023-05-05T06:17:05.756Z,100581.84
2023-05-05T06:18:05.897Z,100578.18
2023-05-05T06:19:05.825Z,100580.86
2023-05-05T06:20:07.022Z,100582.85
2023-05-05T06:21:05.916Z,100583.14
2023-05-05T06:22:05.926Z,100584.79
2023-05-05T06:23:06.597Z,100581.55
2023-05-05T06:24:06.445Z,100581.2
2023-05-05T06:25:06.447Z,100589.34
2023-05-05T06:26:06.108Z,100583.2
2023-05-05T06:27:06.185Z,100583.8
2023-05-05T06:28:06.058Z,100581.35
2023-05-05T06:29:06.006Z,100579.86
2023-05-05T06:30:07.013Z,100578.51
2023-05-05T06:31:06.022Z,100580.38
2023-05-05T06:32:06.068Z,100578.13
2023-05-05T06:33:06.085Z,100582.56
2023-05-05T06:34:06.380Z,100583.56
2023-05-05T06:35:06.626Z,100586.45
2023-05-05T06:36:06.144Z,100580.86
2023-05-05T06:37:06.083Z,100582.84
2023-05-05T06:38:06.118Z,100581.8
2023-05-05T06:39:06.152Z,100580.36
2023-05-05T06:40:07.274Z,100576.21
2023-05-05T06:41:06.229Z,100575.02
2023-05-05T06:42:06.189Z,100578.23
2023-05-05T06:43:06.176Z,100583.59
2023-05-05T06:44:06.235Z,100582.53
2023-05-05T06:45:06.826Z,100573.16
2023-05-05T06:46:06.251Z,100578.11
2023-05-05T06:47:06.704Z,100580.73
2023-05-05T06:48:06.370Z,100577.88
2023-05-05T06:49:06.349Z,100579.71
2023-05-05T06:50:07.560Z,100580.27
2023-05-05T06:51:06.651Z,100575.51
2023-05-05T06:52:06.429Z,100573.58
2023-05-05T06:53:06.384Z,100578.09
2023-05-05T06:54:06.633Z,100586.61
2023-05-05T06:55:07.174Z,100582.17
2023-05-05T06:56:06.958Z,100582.57
2023-05-05T06:57:06.474Z,100580.52
2023-05-05T06:58:06.428Z,100582.99
2023-05-05T06:59:06.455Z,100583.27
2023-05-05T07:00:07.364Z,100579.44
2023-05-05T07:01:06.588Z,100581.09
2023-05-05T07:02:06.487Z,100579.98
2023-05-05T07:03:06.631Z,100582.63
2023-05-05T07:04:07.052Z,100577.47
2023-05-05T07:05:07.124Z,100583.61
2023-05-05T07:06:06.659Z,100579.79
2023-05-05T07:07:06.592Z,100578.11
2023-05-05T07:08:06.579Z,100574.78
2023-05-05T07:09:06.584Z,100575.36
2023-05-05T07:10:07.600Z,100571.83
2023-05-05T07:11:06.643Z,100574.45
2023-05-05T07:12:07.149Z,100574.87
2023-05-05T07:13:07.102Z,100574.66
2023-05-05T07:14:06.715Z,100577.3
2023-05-05T07:15:23.486Z,100582.44
2023-05-05T07:16:08.041Z,100578.53
2023-05-05T07:17:07.887Z,100577.7
2023-05-05T07:18:07.916Z,100568.45
2023-05-05T07:19:07.890Z,100577.13
2023-05-05T07:20:08.974Z,100578.48
2023-05-05T07:21:07.906Z,100569.22
2023-05-05T07:22:07.942Z,100579.58
2023-05-05T07:23:07.969Z,100582.1
2023-05-05T07:24:08.668Z,100576.77
2023-05-05T07:25:08.396Z,100578.62
2023-05-05T07:26:08.034Z,100574.55
2023-05-05T07:27:08.248Z,100574.31
2023-05-05T07:28:08.050Z,100578.91
2023-05-05T07:29:08.300Z,100578.47
2023-05-05T07:30:13.258Z,100587.02
2023-05-05T07:31:10.501Z,100580.24
2023-05-05T07:32:10.549Z,100586.33
2023-05-05T07:33:10.772Z,100579.81
2023-05-05T07:34:10.515Z,100578.81
2023-05-05T07:35:10.577Z,100577.33
2023-05-05T07:36:10.571Z,100581.27
2023-05-05T07:37:10.804Z,100584.09
2023-05-05T07:38:10.986Z,100575.47
2023-05-05T07:39:10.598Z,100589.05
2023-05-05T07:40:11.545Z,100588.59
2023-05-05T07:41:10.620Z,100584.52
2023-05-05T07:42:10.623Z,100586.52
2023-05-05T07:43:10.662Z,100585.73
2023-05-05T07:44:10.664Z,100582.8
2023-05-05T07:45:11.356Z,100584.73
2023-05-05T07:46:10.756Z,100580.22
2023-05-05T07:47:10.697Z,100579.12
2023-05-05T07:48:10.866Z,100574.52
2023-05-05T07:49:10.722Z,100580.47
2023-05-05T07:50:11.408Z,100580.96
2023-05-05T07:51:10.809Z,100574.09
2023-05-05T07:52:10.810Z,100569.06
2023-05-05T07:53:14.952Z,100573.53
2023-05-05T07:54:11.767Z,100563.02
2023-05-05T07:55:11.785Z,100571.66
2023-05-05T07:56:11.456Z,100574.07
2023-05-05T07:57:11.451Z,100570.11
2023-05-05T07:58:11.513Z,100578.59
2023-05-05T07:59:11.629Z,100578.3
2023-05-05T08:00:12.234Z,100578.48
2023-05-05T08:01:11.542Z,100572.58
2023-05-05T08:02:11.560Z,100578.19
2023-05-05T08:03:12.286Z,100571.78
2023-05-05T08:04:11.663Z,100569.39
2023-05-05T08:05:11.703Z,100574.48
2023-05-05T08:06:11.620Z,100576.16
2023-05-05T08:07:11.636Z,100572.44
2023-05-05T08:08:11.623Z,100573.66
2023-05-05T08:09:11.624Z,100571.55
2023-05-05T08:10:11.997Z,100571.72
2023-05-05T08:11:11.687Z,100576.67
2023-05-05T08:12:11.680Z,100580.98
2023-05-05T08:13:11.764Z,100572.94
2023-05-05T08:14:11.708Z,100580.09
2023-05-05T08:15:11.981Z,100586.38
2023-05-05T08:16:12.129Z,100593.62
2023-05-05T08:17:11.946Z,100604.08
2023-05-05T08:18:11.798Z,100598.95
2023-05-05T08:19:24.929Z,100618.66
2023-05-05T08:20:15.342Z,100612.92
2023-05-05T08:21:14.739Z,100621.11
2023-05-05T08:22:14.814Z,100621.73
2023-05-05T08:23:14.774Z,100625.25
2023-05-05T08:24:14.887Z,100632.98
2023-05-05T08:25:14.866Z,100631.22
2023-05-05T08:26:14.903Z,100639.86
2023-05-05T08:27:15.033Z,100632.13
2023-05-05T08:28:14.910Z,100630.79
2023-05-05T08:29:15.095Z,100633.93
2023-05-05T08:30:15.195Z,100627.78
2023-05-05T08:31:15.171Z,100629.95
2023-05-05T08:32:15.120Z,100627.3
2023-05-05T08:33:15.241Z,100620.86
2023-05-05T08:34:15.010Z,100619.02
2023-05-05T08:35:15.043Z,100612.41
2023-05-05T08:36:15.074Z,100613.84
2023-05-05T08:37:15.043Z,100615.86
2023-05-05T08:38:15.024Z,100617.74
2023-05-05T08:39:15.033Z,100613.62
2023-05-05T08:40:15.232Z,100615.09
2023-05-05T08:41:17.201Z,100609.83
2023-05-05T08:42:25.469Z,100614.2
2023-05-05T08:43:20.278Z,100612.83
2023-05-05T08:44:19.904Z,100605.48
2023-05-05T08:45:20.072Z,100603.37
2023-05-05T08:46:19.969Z,100610.33
2023-05-05T08:47:20.118Z,100605.08
2023-05-05T08:48:23.030Z,100597.74
2023-05-05T08:49:20.205Z,100595.16
2023-05-05T08:50:23.237Z,100590.72
2023-05-05T08:51:20.565Z,100598.78
2023-05-05T08:52:22.868Z,100586.86
2023-05-05T08:53:26.191Z,100590.66
2023-05-05T08:54:27.204Z,100583.8
2023-05-05T08:55:24.976Z,100583.38
2023-05-05T08:56:31.306Z,100588.63
2023-05-05T08:57:32.248Z,100585.95
2023-05-05T08:58:30.311Z,100581.92
2023-05-05T08:59:30.116Z,100579.77
2023-05-05T09:00:29.191Z,100579.16
2023-05-05T09:01:29.910Z,100574.91
2023-05-05T09:02:29.342Z,100578.38
2023-05-05T09:03:29.645Z,100571.17
2023-05-05T09:04:29.004Z,100573.34
2023-05-05T09:05:29.219Z,100577.28
2023-05-05T09:06:29.563Z,100587.02
2023-05-05T09:07:29.466Z,100591.8
2023-05-05T09:08:29.149Z,100593.25
2023-05-05T09:09:29.336Z,100586.78
2023-05-05T09:10:30.277Z,100595.95
2023-05-05T09:11:29.185Z,100590.08
2023-05-05T09:12:30.817Z,100593.39
2023-05-05T09:13:30.102Z,100595.94
2023-05-05T09:14:29.181Z,100594.55
2023-05-05T09:15:29.217Z,100601.67
2023-05-05T09:16:29.245Z,100605.08
2023-05-05T09:17:29.466Z,100604.72
2023-05-05T09:18:29.444Z,100607.39
2023-05-05T09:19:29.272Z,100613.56
2023-05-05T09:20:36.318Z,100612.98
2023-05-05T09:21:33.047Z,100611.64
2023-05-05T09:22:36.817Z,100614.92
2023-05-05T09:23:33.887Z,100607.56
2023-05-05T09:24:33.676Z,100604.5
2023-05-05T09:25:33.814Z,100602.09
2023-05-05T09:26:34.390Z,100611.95
2023-05-05T09:27:37.621Z,100606.81
2023-05-05T09:28:34.620Z,100607.03
2023-05-05T09:29:34.612Z,100608.28
2023-05-05T09:30:35.044Z,100607.96
2023-05-05T09:31:35.047Z,100609.95
2023-05-05T09:32:47.299Z,100613.92
2023-05-05T09:33:39.089Z,100614.02
2023-05-05T09:34:39.308Z,100616.55
2023-05-05T09:35:49.001Z,100611.84
2023-05-05T09:36:41.492Z,100609.83
2023-05-05T09:37:40.907Z,100612.5
2023-05-05T09:38:40.925Z,100610.45
2023-05-05T09:39:53.011Z,100612.59
2023-05-05T09:40:46.127Z,100608.71
2023-05-05T09:41:45.211Z,100605.97
2023-05-05T09:42:45.088Z,100612.62
2023-05-05T09:43:51.528Z,100596.69
2023-05-05T09:44:48.387Z,100597.94
2023-05-05T09:45:48.756Z,100596.53
2023-05-05T09:46:51.774Z,100586.12
2023-05-05T09:47:48.780Z,100585.8
2023-05-05T09:48:48.631Z,100581.41
2023-05-05T09:49:58.246Z,100588.89
2023-05-05T09:50:49.953Z,100582.77
2023-05-05T09:51:49.935Z,100579.98
2023-05-05T09:52:59.487Z,100578.55
2023-05-05T09:53:51.223Z,100581.72
2023-05-05T09:54:54.946Z,100580.17
2023-05-05T09:55:55.453Z,100578.41
2023-05-05T09:56:52.118Z,100583.8
2023-05-05T09:57:52.522Z,100569.88
2023-05-05T09:59:54.609Z,100587.87
2023-05-05T10:00:55.041Z,100584.75
2023-05-05T10:03:02.450Z,100586.2
2023-05-05T10:03:59.198Z,100585.47
2023-05-05T10:05:11.935Z,100583.33
2023-05-05T10:06:03.604Z,100579.37
2023-05-05T10:07:03.586Z,100578.16
2023-05-05T10:08:11.864Z,100575.56
2023-05-05T10:09:08.537Z,100571.54
2023-05-05T10:10:13.259Z,100575.84
2023-05-05T10:11:12.667Z,100575.8
2023-05-05T10:12:10.253Z,100577.3
2023-05-05T10:13:10.936Z,100570.91
2023-05-05T10:14:12.759Z,100596
2023-05-05T10:15:10.603Z,100581.45
2023-05-05T10:16:11.239Z,100593.62
2023-05-05T10:17:10.712Z,100585.02
2023-05-05T10:18:10.303Z,100592.3
2023-05-05T10:19:11.417Z,100600.11
2023-05-05T10:20:12.750Z,100590.75
2023-05-05T10:21:12.447Z,100596.12
2023-05-05T10:22:10.542Z,100597.86
2023-05-05T10:23:12.955Z,100600.66
2023-05-05T10:24:16.054Z,100597.24
2023-05-05T10:25:13.998Z,100599.27
2023-05-05T10:26:13.815Z,100599.41
2023-05-05T10:27:17.233Z,100598.54
2023-05-05T10:28:16.878Z,100597.7
2023-05-05T10:29:16.798Z,100598.97
2023-05-05T10:30:20.605Z,100596.41
2023-05-05T10:31:25.898Z,100595.03
2023-05-05T10:34:29.833Z,100595.72
2023-05-05T10:35:27.704Z,100596.69
2023-05-05T10:36:26.581Z,100596.22
2023-05-05T10:37:27.211Z,100596.02
2023-05-05T10:38:28.681Z,100596.48
2023-05-05T10:39:26.301Z,100594.54
2023-05-05T10:40:26.624Z,100600.59
2023-05-05T10:41:26.213Z,100597.89
2023-05-05T10:42:26.197Z,100597.98
2023-05-05T10:43:27.562Z,100600.84
2023-05-05T10:44:27.441Z,100594.89
2023-05-05T10:45:26.554Z,100594.68
2023-05-05T10:46:26.944Z,100599.73
2023-05-05T10:47:27.683Z,100595.54
2023-05-05T10:50:36.228Z,100596.05
2023-05-05T10:51:41.375Z,100595.39
2023-05-05T10:53:44.343Z,100592.62
2023-05-05T10:55:43.674Z,100597.56
2023-05-05T10:56:40.530Z,100598.58
2023-05-05T10:57:41.051Z,100596.97
2023-05-05T10:58:51.321Z,100592.4
2023-05-05T10:59:42.941Z,100594.38
2023-05-05T11:00:51.819Z,100593.25
2023-05-05T11:01:43.741Z,100593.25
2023-05-05T11:02:43.688Z,100593.73
2023-05-05T11:03:43.657Z,100592.66
2023-05-05T11:04:43.617Z,100600.59
2023-05-05T11:07:53.115Z,100597.33
2023-05-05T11:08:55.769Z,100590.82
2023-05-05T11:09:54.464Z,100591.03
2023-05-05T11:10:52.794Z,100593.69
2023-05-05T11:12:02.667Z,100594.43
2023-05-05T11:16:01.771Z,100596.25
2023-05-05T11:17:02.023Z,100595.66
2023-05-05T11:18:05.736Z,100597.24
2023-05-05T11:20:05.492Z,100604.89
2023-05-05T11:22:06.460Z,100603.27
2023-05-05T11:26:12.716Z,100605.17
2023-05-05T11:27:12.031Z,100603.66
2023-05-05T11:28:16.731Z,100608.27
2023-05-05T11:29:13.763Z,100604.61
2023-05-05T11:30:14.211Z,100608.18
2023-05-05T11:31:16.671Z,100607.99
2023-05-05T11:32:14.454Z,100606.66
2023-05-05T11:35:15.707Z,100607.84
2023-05-05T11:36:16.301Z,100604.58
2023-05-05T11:37:15.737Z,100607.09
2023-05-05T11:38:17.556Z,100609.55
2023-05-05T11:39:22.905Z,100603.66
2023-05-05T11:40:28.146Z,100606.97
2023-05-05T11:42:26.809Z,100604.2
2023-05-05T11:43:23.678Z,100606.95
2023-05-05T11:44:30.407Z,100609.2
2023-05-05T11:45:27.125Z,100608.41
2023-05-05T11:46:27.261Z,100604.5
2023-05-05T11:47:27.912Z,100603.61
2023-05-05T11:48:27.164Z,100606
2023-05-05T11:49:27.708Z,100597.84
2023-05-05T11:50:27.388Z,100606.63
2023-05-05T11:51:28.236Z,100606.02
2023-05-05T11:52:27.241Z,100599.7
2023-05-05T11:53:27.437Z,100601.17
2023-05-05T11:54:27.611Z,100604.95
2023-05-05T11:55:27.308Z,100599.28
2023-05-05T11:56:27.242Z,100598.01
2023-05-05T11:57:28.268Z,100593.68
2023-05-05T11:58:27.277Z,100595.4
2023-05-05T11:59:27.654Z,100592.64
2023-05-05T12:00:33.595Z,100591.05
2023-05-05T12:01:30.429Z,100596.03
2023-05-05T12:02:30.611Z,100593.11
2023-05-05T12:03:34.286Z,100593.05
2023-05-05T12:04:31.315Z,100592.35
2023-05-05T12:05:31.577Z,100593.3
2023-05-05T12:06:33.971Z,100591.84
2023-05-05T12:07:32.218Z,100587.88
2023-05-05T12:08:40.371Z,100591.52
2023-05-05T12:09:32.422Z,100586.81
2023-05-05T12:10:32.116Z,100590.34
2023-05-05T12:11:32.285Z,100586.33
2023-05-05T12:12:36.145Z,100591.99
2023-05-05T12:13:33.100Z,100589.41
2023-05-05T12:14:32.966Z,100582.78
2023-05-05T12:15:33.163Z,100586.86
2023-05-05T12:16:33.204Z,100584.14
2023-05-05T12:17:42.797Z,100590.17
2023-05-05T12:18:34.931Z,100590.08
2023-05-05T12:19:35.576Z,100589.39
2023-05-05T12:20:34.826Z,100593.98
2023-05-05T12:21:35.105Z,100596.22
2023-05-05T12:22:35.098Z,100594.05